sensor_id;sensor_type;location;lat;lon;timestamp;P1;durP1;ratioP1;P2;durP2;ratioP2
43771;SDS011;59066;54.782;32.024;2022-12-07T00:01:38;7.38;;;2.65;;
43771;SDS011;59066;54.782;32.024;2022-12-07T00:04:08;3.63;;;2.55;;
43771;SDS011;59066;54.782;32.024;2022-12-07T00:06:41;5.43;;;2.15;;
43771;SDS011;59066;54.782;32.024;2022-12-07T00:09:11;6.43;;;3.13;;
43771;SDS011;59066;54.782;32.024;2022-12-07T00:11:41;2.80;;;2.00;;
43771;SDS011;59066;54.782;32.024;2022-12-07T00:14:12;4.70;;;2.38;;
43771;SDS011;59066;54.782;32.024;2022-12-07T00:16:42;3.40;;;1.88;;
43771;SDS011;59066;54.782;32.024;2022-12-07T00:19:11;4.55;;;2.45;;
43771;SDS011;59066;54.782;32.024;2022-12-07T00:21:40;5.07;;;2.47;;
43771;SDS011;59066;54.782;32.024;2022-12-07T00:24:09;4.90;;;2.70;;
43771;SDS011;59066;54.782;32.024;2022-12-07T00:26:37;5.18;;;2.58;;
43771;SDS011;59066;54.782;32.024;2022-12-07T00:29:18;5.43;;;2.42;;
43771;SDS011;59066;54.782;32.024;2022-12-07T00:31:48;3.72;;;2.17;;
43771;SDS011;59066;54.782;32.024;2022-12-07T00:34:19;3.30;;;2.00;;
43771;SDS011;59066;54.782;32.024;2022-12-07T00:36:48;2.50;;;1.75;;
43771;SDS011;59066;54.782;32.024;2022-12-07T00:39:15;3.83;;;1.85;;
43771;SDS011;59066;54.782;32.024;2022-12-07T00:41:43;3.60;;;1.83;;
43771;SDS011;59066;54.782;32.024;2022-12-07T00:44:11;5.15;;;2.75;;
43771;SDS011;59066;54.782;32.024;2022-12-07T00:46:38;5.25;;;2.60;;
43771;SDS011;59066;54.782;32.024;2022-12-07T00:49:06;4.15;;;1.90;;
43771;SDS011;59066;54.782;32.024;2022-12-07T00:51:33;5.72;;;2.75;;
43771;SDS011;59066;54.782;32.024;2022-12-07T00:54:00;2.50;;;1.60;;
43771;SDS011;59066;54.782;32.024;2022-12-07T00:56:28;5.13;;;2.08;;
43771;SDS011;59066;54.782;32.024;2022-12-07T00:58:57;3.53;;;2.42;;
43771;SDS011;59066;54.782;32.024;2022-12-07T01:01:26;4.15;;;2.53;;
43771;SDS011;59066;54.782;32.024;2022-12-07T01:03:55;4.05;;;2.00;;
43771;SDS011;59066;54.782;32.024;2022-12-07T01:06:23;3.40;;;2.38;;
43771;SDS011;59066;54.782;32.024;2022-12-07T01:08:52;5.90;;;3.00;;
43771;SDS011;59066;54.782;32.024;2022-12-07T01:11:21;3.70;;;2.30;;
43771;SDS011;59066;54.782;32.024;2022-12-07T01:13:51;5.75;;;2.83;;
43771;SDS011;59066;54.782;32.024;2022-12-07T01:16:20;4.78;;;2.65;;
43771;SDS011;59066;54.782;32.024;2022-12-07T01:18:49;5.20;;;2.92;;
43771;SDS011;59066;54.782;32.024;2022-12-07T01:21:25;3.50;;;1.83;;
43771;SDS011;59066;54.782;32.024;2022-12-07T01:23:54;4.22;;;2.35;;
43771;SDS011;59066;54.782;32.024;2022-12-07T01:26:24;5.05;;;2.25;;
43771;SDS011;59066;54.782;32.024;2022-12-07T01:28:53;1.85;;;1.30;;
43771;SDS011;59066;54.782;32.024;2022-12-07T01:31:22;5.57;;;2.40;;
43771;SDS011;59066;54.782;32.024;2022-12-07T01:33:52;2.90;;;1.63;;
43771;SDS011;59066;54.782;32.024;2022-12-07T01:36:23;5.68;;;2.90;;
43771;SDS011;59066;54.782;32.024;2022-12-07T01:38:59;9.02;;;2.53;;
43771;SDS011;59066;54.782;32.024;2022-12-07T01:41:29;3.78;;;2.13;;
43771;SDS011;59066;54.782;32.024;2022-12-07T01:44:17;6.80;;;2.70;;
43771;SDS011;59066;54.782;32.024;2022-12-07T01:46:51;6.68;;;2.58;;
43771;SDS011;59066;54.782;32.024;2022-12-07T01:51:47;8.98;;;4.28;;
43771;SDS011;59066;54.782;32.024;2022-12-07T01:54:17;3.38;;;2.40;;
43771;SDS011;59066;54.782;32.024;2022-12-07T01:56:49;5.53;;;2.80;;
43771;SDS011;59066;54.782;32.024;2022-12-07T01:59:19;3.05;;;1.70;;
43771;SDS011;59066;54.782;32.024;2022-12-07T02:01:50;11.63;;;3.30;;
43771;SDS011;59066;54.782;32.024;2022-12-07T02:04:18;1.75;;;1.58;;
43771;SDS011;59066;54.782;32.024;2022-12-07T02:06:46;6.32;;;2.53;;
43771;SDS011;59066;54.782;32.024;2022-12-07T02:09:14;5.38;;;2.17;;
43771;SDS011;59066;54.782;32.024;2022-12-07T02:11:41;5.28;;;3.03;;
43771;SDS011;59066;54.782;32.024;2022-12-07T02:14:09;6.63;;;2.53;;
43771;SDS011;59066;54.782;32.024;2022-12-07T02:16:55;12.98;;;3.30;;
43771;SDS011;59066;54.782;32.024;2022-12-07T02:25:03;7.53;;;2.60;;
43771;SDS011;59066;54.782;32.024;2022-12-07T02:27:36;8.07;;;2.90;;
43771;SDS011;59066;54.782;32.024;2022-12-07T02:30:13;5.38;;;3.00;;
43771;SDS011;59066;54.782;32.024;2022-12-07T02:32:56;6.88;;;2.67;;
43771;SDS011;59066;54.782;32.024;2022-12-07T02:35:39;4.72;;;2.45;;
43771;SDS011;59066;54.782;32.024;2022-12-07T02:38:38;7.60;;;2.92;;
43771;SDS011;59066;54.782;32.024;2022-12-07T02:41:26;7.00;;;3.50;;
43771;SDS011;59066;54.782;32.024;2022-12-07T02:43:59;6.35;;;3.10;;
43771;SDS011;59066;54.782;32.024;2022-12-07T02:46:34;5.13;;;2.13;;
43771;SDS011;59066;54.782;32.024;2022-12-07T02:49:06;10.35;;;3.17;;
43771;SDS011;59066;54.782;32.024;2022-12-07T02:51:38;7.22;;;3.03;;
43771;SDS011;59066;54.782;32.024;2022-12-07T02:54:10;5.80;;;2.80;;
43771;SDS011;59066;54.782;32.024;2022-12-07T03:09:53;3.22;;;2.17;;
43771;SDS011;59066;54.782;32.024;2022-12-07T03:12:36;4.60;;;2.30;;
43771;SDS011;59066;54.782;32.024;2022-12-07T03:15:29;7.63;;;2.75;;
43771;SDS011;59066;54.782;32.024;2022-12-07T03:18:02;12.55;;;3.03;;
43771;SDS011;59066;54.782;32.024;2022-12-07T03:20:32;10.50;;;2.63;;
43771;SDS011;59066;54.782;32.024;2022-12-07T03:23:03;15.40;;;5.07;;
43771;SDS011;59066;54.782;32.024;2022-12-07T03:25:32;8.73;;;3.08;;
43771;SDS011;59066;54.782;32.024;2022-12-07T03:28:02;6.60;;;2.92;;
43771;SDS011;59066;54.782;32.024;2022-12-07T03:30:47;9.38;;;4.25;;
43771;SDS011;59066;54.782;32.024;2022-12-07T03:33:33;7.30;;;3.23;;
43771;SDS011;59066;54.782;32.024;2022-12-07T03:41:39;5.65;;;2.38;;
43771;SDS011;59066;54.782;32.024;2022-12-07T03:44:10;3.65;;;2.45;;
43771;SDS011;59066;54.782;32.024;2022-12-07T03:46:42;12.63;;;2.97;;
43771;SDS011;59066;54.782;32.024;2022-12-07T03:52:08;8.00;;;2.83;;
43771;SDS011;59066;54.782;32.024;2022-12-07T03:54:59;10.43;;;2.97;;
43771;SDS011;59066;54.782;32.024;2022-12-07T03:57:33;6.88;;;3.35;;
43771;SDS011;59066;54.782;32.024;2022-12-07T04:00:01;11.20;;;3.30;;
43771;SDS011;59066;54.782;32.024;2022-12-07T04:05:05;6.13;;;3.03;;
43771;SDS011;59066;54.782;32.024;2022-12-07T04:07:33;7.88;;;3.40;;
43771;SDS011;59066;54.782;32.024;2022-12-07T04:10:01;9.23;;;3.67;;
43771;SDS011;59066;54.782;32.024;2022-12-07T04:12:29;13.13;;;2.75;;
43771;SDS011;59066;54.782;32.024;2022-12-07T04:14:56;7.18;;;3.72;;
43771;SDS011;59066;54.782;32.024;2022-12-07T04:17:24;11.57;;;3.65;;
43771;SDS011;59066;54.782;32.024;2022-12-07T04:19:51;6.65;;;3.50;;
43771;SDS011;59066;54.782;32.024;2022-12-07T04:22:19;16.52;;;4.85;;
43771;SDS011;59066;54.782;32.024;2022-12-07T04:24:46;11.63;;;3.33;;
43771;SDS011;59066;54.782;32.024;2022-12-07T04:27:14;5.07;;;3.20;;
43771;SDS011;59066;54.782;32.024;2022-12-07T04:29:41;15.50;;;4.20;;
43771;SDS011;59066;54.782;32.024;2022-12-07T04:32:08;5.20;;;2.47;;
43771;SDS011;59066;54.782;32.024;2022-12-07T04:34:36;13.60;;;5.75;;
43771;SDS011;59066;54.782;32.024;2022-12-07T04:37:03;24.92;;;6.25;;
43771;SDS011;59066;54.782;32.024;2022-12-07T04:39:32;5.72;;;2.92;;
43771;SDS011;59066;54.782;32.024;2022-12-07T04:42:00;8.57;;;3.95;;
43771;SDS011;59066;54.782;32.024;2022-12-07T04:44:28;15.35;;;4.00;;
43771;SDS011;59066;54.782;32.024;2022-12-07T04:46:56;7.40;;;3.30;;
43771;SDS011;59066;54.782;32.024;2022-12-07T04:49:27;5.43;;;3.42;;
43771;SDS011;59066;54.782;32.024;2022-12-07T04:51:54;7.57;;;3.67;;
43771;SDS011;59066;54.782;32.024;2022-12-07T04:54:22;9.05;;;3.53;;
43771;SDS011;59066;54.782;32.024;2022-12-07T04:56:49;7.15;;;3.72;;
43771;SDS011;59066;54.782;32.024;2022-12-07T04:59:16;3.95;;;2.63;;
43771;SDS011;59066;54.782;32.024;2022-12-07T05:01:44;11.05;;;3.22;;
43771;SDS011;59066;54.782;32.024;2022-12-07T05:04:11;6.22;;;3.97;;
43771;SDS011;59066;54.782;32.024;2022-12-07T05:06:39;7.85;;;4.30;;
43771;SDS011;59066;54.782;32.024;2022-12-07T05:09:06;5.70;;;2.83;;
43771;SDS011;59066;54.782;32.024;2022-12-07T05:11:34;8.32;;;3.38;;
43771;SDS011;59066;54.782;32.024;2022-12-07T05:14:06;4.22;;;2.38;;
43771;SDS011;59066;54.782;32.024;2022-12-07T05:16:39;9.32;;;3.63;;
43771;SDS011;59066;54.782;32.024;2022-12-07T05:19:08;14.52;;;3.58;;
43771;SDS011;59066;54.782;32.024;2022-12-07T05:21:36;3.72;;;2.17;;
43771;SDS011;59066;54.782;32.024;2022-12-07T05:24:04;16.08;;;2.03;;
43771;SDS011;59066;54.782;32.024;2022-12-07T05:26:32;8.48;;;3.55;;
43771;SDS011;59066;54.782;32.024;2022-12-07T05:29:00;7.47;;;2.67;;
43771;SDS011;59066;54.782;32.024;2022-12-07T05:31:28;3.35;;;2.50;;
43771;SDS011;59066;54.782;32.024;2022-12-07T05:33:55;7.38;;;2.75;;
43771;SDS011;59066;54.782;32.024;2022-12-07T05:36:23;7.32;;;3.55;;
43771;SDS011;59066;54.782;32.024;2022-12-07T05:38:51;8.18;;;4.10;;
43771;SDS011;59066;54.782;32.024;2022-12-07T05:41:18;5.10;;;2.40;;
43771;SDS011;59066;54.782;32.024;2022-12-07T05:44:06;6.18;;;2.90;;
43771;SDS011;59066;54.782;32.024;2022-12-07T05:46:33;9.25;;;5.05;;
43771;SDS011;59066;54.782;32.024;2022-12-07T05:49:01;7.03;;;3.33;;
43771;SDS011;59066;54.782;32.024;2022-12-07T05:51:29;7.38;;;3.03;;
43771;SDS011;59066;54.782;32.024;2022-12-07T05:53:56;9.40;;;2.67;;
43771;SDS011;59066;54.782;32.024;2022-12-07T05:56:24;4.30;;;1.90;;
43771;SDS011;59066;54.782;32.024;2022-12-07T05:58:53;5.90;;;3.22;;
43771;SDS011;59066;54.782;32.024;2022-12-07T06:01:39;6.68;;;4.00;;
43771;SDS011;59066;54.782;32.024;2022-12-07T06:04:07;7.57;;;2.75;;
43771;SDS011;59066;54.782;32.024;2022-12-07T06:06:36;6.82;;;3.75;;
43771;SDS011;59066;54.782;32.024;2022-12-07T06:09:03;6.97;;;3.33;;
43771;SDS011;59066;54.782;32.024;2022-12-07T06:11:31;4.72;;;3.13;;
43771;SDS011;59066;54.782;32.024;2022-12-07T06:14:17;12.55;;;4.05;;
43771;SDS011;59066;54.782;32.024;2022-12-07T06:16:44;11.40;;;4.10;;
43771;SDS011;59066;54.782;32.024;2022-12-07T06:19:12;8.82;;;4.75;;
43771;SDS011;59066;54.782;32.024;2022-12-07T06:21:40;12.77;;;4.13;;
43771;SDS011;59066;54.782;32.024;2022-12-07T06:24:09;6.38;;;2.72;;
43771;SDS011;59066;54.782;32.024;2022-12-07T06:26:38;12.52;;;5.15;;
43771;SDS011;59066;54.782;32.024;2022-12-07T06:29:06;12.68;;;5.60;;
43771;SDS011;59066;54.782;32.024;2022-12-07T06:31:34;15.00;;;4.57;;
43771;SDS011;59066;54.782;32.024;2022-12-07T06:34:04;7.20;;;2.88;;
43771;SDS011;59066;54.782;32.024;2022-12-07T06:36:33;11.35;;;4.32;;
43771;SDS011;59066;54.782;32.024;2022-12-07T06:39:01;9.52;;;3.40;;
43771;SDS011;59066;54.782;32.024;2022-12-07T06:41:29;10.70;;;4.45;;
43771;SDS011;59066;54.782;32.024;2022-12-07T06:43:56;8.73;;;4.03;;
43771;SDS011;59066;54.782;32.024;2022-12-07T06:46:24;11.63;;;4.03;;
43771;SDS011;59066;54.782;32.024;2022-12-07T06:48:51;8.82;;;5.30;;
43771;SDS011;59066;54.782;32.024;2022-12-07T06:51:19;19.15;;;5.00;;
43771;SDS011;59066;54.782;32.024;2022-12-07T06:53:46;6.20;;;3.08;;
43771;SDS011;59066;54.782;32.024;2022-12-07T06:56:14;9.98;;;3.72;;
43771;SDS011;59066;54.782;32.024;2022-12-07T06:58:42;12.77;;;6.60;;
43771;SDS011;59066;54.782;32.024;2022-12-07T07:01:10;8.80;;;4.70;;
43771;SDS011;59066;54.782;32.024;2022-12-07T07:03:43;14.23;;;4.75;;
43771;SDS011;59066;54.782;32.024;2022-12-07T07:06:11;7.72;;;3.40;;
43771;SDS011;59066;54.782;32.024;2022-12-07T07:08:40;13.18;;;5.50;;
43771;SDS011;59066;54.782;32.024;2022-12-07T07:11:08;15.18;;;6.15;;
43771;SDS011;59066;54.782;32.024;2022-12-07T07:13:36;6.07;;;3.45;;
43771;SDS011;59066;54.782;32.024;2022-12-07T07:16:05;8.43;;;5.53;;
43771;SDS011;59066;54.782;32.024;2022-12-07T07:18:34;12.05;;;5.00;;
43771;SDS011;59066;54.782;32.024;2022-12-07T07:21:02;10.00;;;3.40;;
43771;SDS011;59066;54.782;32.024;2022-12-07T07:23:30;14.75;;;3.78;;
43771;SDS011;59066;54.782;32.024;2022-12-07T07:25:57;10.57;;;5.13;;
43771;SDS011;59066;54.782;32.024;2022-12-07T07:28:25;23.42;;;6.70;;
43771;SDS011;59066;54.782;32.024;2022-12-07T07:30:53;6.35;;;2.83;;
43771;SDS011;59066;54.782;32.024;2022-12-07T07:33:20;13.80;;;3.00;;
43771;SDS011;59066;54.782;32.024;2022-12-07T07:35:48;5.78;;;2.60;;
43771;SDS011;59066;54.782;32.024;2022-12-07T07:38:15;7.05;;;3.53;;
43771;SDS011;59066;54.782;32.024;2022-12-07T07:40:43;5.57;;;3.60;;
43771;SDS011;59066;54.782;32.024;2022-12-07T07:43:11;8.90;;;4.90;;
43771;SDS011;59066;54.782;32.024;2022-12-07T07:45:38;14.20;;;7.00;;
43771;SDS011;59066;54.782;32.024;2022-12-07T07:48:06;8.43;;;4.43;;
43771;SDS011;59066;54.782;32.024;2022-12-07T07:50:33;8.48;;;4.68;;
43771;SDS011;59066;54.782;32.024;2022-12-07T07:53:00;10.43;;;4.28;;
43771;SDS011;59066;54.782;32.024;2022-12-07T07:55:28;8.90;;;3.67;;
43771;SDS011;59066;54.782;32.024;2022-12-07T07:57:55;9.77;;;3.70;;
43771;SDS011;59066;54.782;32.024;2022-12-07T08:00:23;7.65;;;3.30;;
43771;SDS011;59066;54.782;32.024;2022-12-07T08:02:50;7.80;;;3.80;;
43771;SDS011;59066;54.782;32.024;2022-12-07T08:05:18;10.32;;;4.70;;
43771;SDS011;59066;54.782;32.024;2022-12-07T08:07:46;9.55;;;3.35;;
43771;SDS011;59066;54.782;32.024;2022-12-07T08:10:14;8.30;;;3.80;;
43771;SDS011;59066;54.782;32.024;2022-12-07T08:12:42;4.15;;;3.00;;
43771;SDS011;59066;54.782;32.024;2022-12-07T08:15:29;12.43;;;4.47;;
43771;SDS011;59066;54.782;32.024;2022-12-07T08:17:58;11.80;;;4.53;;
43771;SDS011;59066;54.782;32.024;2022-12-07T08:20:25;7.65;;;3.70;;
43771;SDS011;59066;54.782;32.024;2022-12-07T08:22:54;11.43;;;6.55;;
43771;SDS011;59066;54.782;32.024;2022-12-07T08:25:21;8.02;;;4.10;;
43771;SDS011;59066;54.782;32.024;2022-12-07T08:27:49;8.18;;;3.75;;
43771;SDS011;59066;54.782;32.024;2022-12-07T08:30:18;8.25;;;4.68;;
43771;SDS011;59066;54.782;32.024;2022-12-07T08:32:46;7.82;;;4.38;;
43771;SDS011;59066;54.782;32.024;2022-12-07T08:35:15;11.65;;;4.35;;
43771;SDS011;59066;54.782;32.024;2022-12-07T08:37:43;8.63;;;3.72;;
43771;SDS011;59066;54.782;32.024;2022-12-07T08:40:11;9.98;;;5.63;;
43771;SDS011;59066;54.782;32.024;2022-12-07T08:42:43;9.75;;;4.20;;
43771;SDS011;59066;54.782;32.024;2022-12-07T08:45:15;15.18;;;5.85;;
43771;SDS011;59066;54.782;32.024;2022-12-07T08:48:01;9.63;;;4.25;;
43771;SDS011;59066;54.782;32.024;2022-12-07T08:50:32;10.63;;;4.80;;
43771;SDS011;59066;54.782;32.024;2022-12-07T08:53:01;11.00;;;5.47;;
43771;SDS011;59066;54.782;32.024;2022-12-07T08:55:31;11.82;;;5.60;;
43771;SDS011;59066;54.782;32.024;2022-12-07T08:58:01;8.68;;;4.18;;
43771;SDS011;59066;54.782;32.024;2022-12-07T09:00:30;11.40;;;5.45;;
43771;SDS011;59066;54.782;32.024;2022-12-07T09:02:57;13.05;;;5.22;;
43771;SDS011;59066;54.782;32.024;2022-12-07T09:05:25;14.90;;;5.80;;
43771;SDS011;59066;54.782;32.024;2022-12-07T09:07:54;11.95;;;4.50;;
43771;SDS011;59066;54.782;32.024;2022-12-07T09:10:24;7.40;;;4.47;;
43771;SDS011;59066;54.782;32.024;2022-12-07T09:12:52;10.43;;;5.03;;
43771;SDS011;59066;54.782;32.024;2022-12-07T09:15:20;6.70;;;4.03;;
43771;SDS011;59066;54.782;32.024;2022-12-07T09:17:47;9.57;;;4.25;;
43771;SDS011;59066;54.782;32.024;2022-12-07T09:20:15;12.05;;;4.70;;
43771;SDS011;59066;54.782;32.024;2022-12-07T09:22:42;10.50;;;4.65;;
43771;SDS011;59066;54.782;32.024;2022-12-07T09:25:10;11.20;;;3.38;;
43771;SDS011;59066;54.782;32.024;2022-12-07T09:27:37;16.70;;;5.22;;
43771;SDS011;59066;54.782;32.024;2022-12-07T09:30:05;12.85;;;7.78;;
43771;SDS011;59066;54.782;32.024;2022-12-07T09:32:33;21.45;;;6.15;;
43771;SDS011;59066;54.782;32.024;2022-12-07T09:35:02;12.35;;;4.85;;
43771;SDS011;59066;54.782;32.024;2022-12-07T09:37:30;8.68;;;4.20;;
43771;SDS011;59066;54.782;32.024;2022-12-07T09:40:02;12.02;;;5.38;;
43771;SDS011;59066;54.782;32.024;2022-12-07T09:42:35;10.95;;;4.35;;
43771;SDS011;59066;54.782;32.024;2022-12-07T09:45:15;14.40;;;4.60;;
43771;SDS011;59066;54.782;32.024;2022-12-07T09:47:46;15.88;;;8.85;;
43771;SDS011;59066;54.782;32.024;2022-12-07T09:50:15;17.63;;;7.55;;
43771;SDS011;59066;54.782;32.024;2022-12-07T09:52:44;10.40;;;4.15;;
43771;SDS011;59066;54.782;32.024;2022-12-07T09:55:24;8.32;;;3.95;;
43771;SDS011;59066;54.782;32.024;2022-12-07T09:57:55;11.55;;;5.68;;
43771;SDS011;59066;54.782;32.024;2022-12-07T10:00:24;12.48;;;5.15;;
43771;SDS011;59066;54.782;32.024;2022-12-07T10:02:56;9.93;;;3.85;;
43771;SDS011;59066;54.782;32.024;2022-12-07T10:05:28;13.55;;;5.40;;
43771;SDS011;59066;54.782;32.024;2022-12-07T10:07:59;16.98;;;6.95;;
43771;SDS011;59066;54.782;32.024;2022-12-07T10:10:29;9.30;;;5.00;;
43771;SDS011;59066;54.782;32.024;2022-12-07T10:13:09;9.90;;;4.93;;
43771;SDS011;59066;54.782;32.024;2022-12-07T10:18:25;10.73;;;4.93;;
43771;SDS011;59066;54.782;32.024;2022-12-07T10:24:21;18.38;;;7.28;;
43771;SDS011;59066;54.782;32.024;2022-12-07T10:26:34;13.23;;;5.90;;
43771;SDS011;59066;54.782;32.024;2022-12-07T10:31:52;8.93;;;3.80;;
43771;SDS011;59066;54.782;32.024;2022-12-07T10:34:59;8.70;;;5.25;;
43771;SDS011;59066;54.782;32.024;2022-12-07T10:37:49;13.48;;;4.85;;
43771;SDS011;59066;54.782;32.024;2022-12-07T10:40:29;8.70;;;4.22;;
43771;SDS011;59066;54.782;32.024;2022-12-07T10:45:32;11.15;;;4.47;;
43771;SDS011;59066;54.782;32.024;2022-12-07T10:48:23;9.35;;;4.80;;
43771;SDS011;59066;54.782;32.024;2022-12-07T11:04:39;9.77;;;5.22;;
43771;SDS011;59066;54.782;32.024;2022-12-07T11:10:46;19.55;;;6.28;;
43771;SDS011;59066;54.782;32.024;2022-12-07T11:21:19;13.48;;;6.18;;
43771;SDS011;59066;54.782;32.024;2022-12-07T11:24:01;10.73;;;6.28;;
43771;SDS011;59066;54.782;32.024;2022-12-07T11:26:47;11.43;;;5.00;;
43771;SDS011;59066;54.782;32.024;2022-12-07T11:40:56;7.63;;;4.10;;
43771;SDS011;59066;54.782;32.024;2022-12-07T11:46:54;12.50;;;6.32;;
43771;SDS011;59066;54.782;32.024;2022-12-07T11:49:57;11.00;;;6.65;;
43771;SDS011;59066;54.782;32.024;2022-12-07T11:52:45;10.38;;;5.38;;
43771;SDS011;59066;54.782;32.024;2022-12-07T11:55:21;8.38;;;5.07;;
43771;SDS011;59066;54.782;32.024;2022-12-07T11:58:03;12.90;;;6.65;;
43771;SDS011;59066;54.782;32.024;2022-12-07T12:00:38;9.98;;;4.93;;
43771;SDS011;59066;54.782;32.024;2022-12-07T12:03:09;10.95;;;5.38;;
43771;SDS011;59066;54.782;32.024;2022-12-07T12:05:42;12.27;;;6.22;;
43771;SDS011;59066;54.782;32.024;2022-12-07T12:08:14;11.85;;;5.82;;
43771;SDS011;59066;54.782;32.024;2022-12-07T12:24:46;9.93;;;5.57;;
43771;SDS011;59066;54.782;32.024;2022-12-07T12:27:31;11.02;;;4.95;;
43771;SDS011;59066;54.782;32.024;2022-12-07T12:30:03;13.75;;;6.88;;
43771;SDS011;59066;54.782;32.024;2022-12-07T12:40:45;11.88;;;6.95;;
43771;SDS011;59066;54.782;32.024;2022-12-07T12:49:30;11.93;;;6.85;;
43771;SDS011;59066;54.782;32.024;2022-12-07T12:57:40;11.15;;;5.93;;
43771;SDS011;59066;54.782;32.024;2022-12-07T13:02:49;17.08;;;9.55;;
43771;SDS011;59066;54.782;32.024;2022-12-07T13:05:29;17.52;;;10.57;;
43771;SDS011;59066;54.782;32.024;2022-12-07T13:07:58;18.50;;;8.85;;
43771;SDS011;59066;54.782;32.024;2022-12-07T13:10:36;13.30;;;6.68;;
43771;SDS011;59066;54.782;32.024;2022-12-07T13:15:51;13.68;;;7.80;;
43771;SDS011;59066;54.782;32.024;2022-12-07T13:23:37;12.18;;;7.20;;
43771;SDS011;59066;54.782;32.024;2022-12-07T13:29:05;11.57;;;6.93;;
43771;SDS011;59066;54.782;32.024;2022-12-07T13:37:08;15.40;;;8.02;;
43771;SDS011;59066;54.782;32.024;2022-12-07T13:40:01;16.50;;;7.53;;
43771;SDS011;59066;54.782;32.024;2022-12-07T13:42:46;17.92;;;11.05;;
43771;SDS011;59066;54.782;32.024;2022-12-07T13:45:20;14.43;;;7.40;;
43771;SDS011;59066;54.782;32.024;2022-12-07T13:51:20;17.58;;;12.43;;
43771;SDS011;59066;54.782;32.024;2022-12-07T13:53:54;17.23;;;11.05;;
43771;SDS011;59066;54.782;32.024;2022-12-07T13:56:28;14.75;;;8.25;;
43771;SDS011;59066;54.782;32.024;2022-12-07T13:59:00;21.23;;;9.82;;
43771;SDS011;59066;54.782;32.024;2022-12-07T14:01:30;16.17;;;8.98;;
43771;SDS011;59066;54.782;32.024;2022-12-07T14:07:22;15.57;;;8.48;;
43771;SDS011;59066;54.782;32.024;2022-12-07T14:09:58;18.73;;;10.30;;
43771;SDS011;59066;54.782;32.024;2022-12-07T14:12:28;15.95;;;8.85;;
43771;SDS011;59066;54.782;32.024;2022-12-07T14:14:57;16.73;;;9.20;;
43771;SDS011;59066;54.782;32.024;2022-12-07T14:17:26;20.75;;;11.13;;
43771;SDS011;59066;54.782;32.024;2022-12-07T14:21:42;18.70;;;12.87;;
43771;SDS011;59066;54.782;32.024;2022-12-07T14:24:17;15.93;;;10.55;;
43771;SDS011;59066;54.782;32.024;2022-12-07T14:26:47;16.20;;;8.70;;
43771;SDS011;59066;54.782;32.024;2022-12-07T14:29:29;15.65;;;9.65;;
43771;SDS011;59066;54.782;32.024;2022-12-07T14:32:14;17.38;;;10.80;;
43771;SDS011;59066;54.782;32.024;2022-12-07T14:34:53;18.17;;;10.48;;
43771;SDS011;59066;54.782;32.024;2022-12-07T14:37:37;19.35;;;12.30;;
43771;SDS011;59066;54.782;32.024;2022-12-07T14:40:06;21.38;;;10.95;;
43771;SDS011;59066;54.782;32.024;2022-12-07T14:42:39;17.98;;;10.73;;
43771;SDS011;59066;54.782;32.024;2022-12-07T14:45:12;21.50;;;9.85;;
43771;SDS011;59066;54.782;32.024;2022-12-07T14:47:41;18.95;;;8.93;;
43771;SDS011;59066;54.782;32.024;2022-12-07T14:50:28;16.83;;;10.20;;
43771;SDS011;59066;54.782;32.024;2022-12-07T14:53:00;13.50;;;7.43;;
43771;SDS011;59066;54.782;32.024;2022-12-07T14:55:49;17.58;;;9.55;;
43771;SDS011;59066;54.782;32.024;2022-12-07T14:58:17;20.85;;;9.93;;
43771;SDS011;59066;54.782;32.024;2022-12-07T15:00:44;18.58;;;9.98;;
43771;SDS011;59066;54.782;32.024;2022-12-07T15:03:12;17.65;;;10.00;;
43771;SDS011;59066;54.782;32.024;2022-12-07T15:05:40;16.55;;;9.30;;
43771;SDS011;59066;54.782;32.024;2022-12-07T15:08:08;20.42;;;12.02;;
43771;SDS011;59066;54.782;32.024;2022-12-07T15:10:38;19.58;;;9.40;;
43771;SDS011;59066;54.782;32.024;2022-12-07T15:13:07;15.70;;;10.15;;
43771;SDS011;59066;54.782;32.024;2022-12-07T15:15:54;29.27;;;14.15;;
43771;SDS011;59066;54.782;32.024;2022-12-07T15:18:22;20.48;;;11.60;;
43771;SDS011;59066;54.782;32.024;2022-12-07T15:20:50;21.27;;;9.20;;
43771;SDS011;59066;54.782;32.024;2022-12-07T15:23:18;19.58;;;11.75;;
43771;SDS011;59066;54.782;32.024;2022-12-07T15:25:46;19.75;;;10.18;;
43771;SDS011;59066;54.782;32.024;2022-12-07T15:28:15;19.30;;;12.23;;
43771;SDS011;59066;54.782;32.024;2022-12-07T15:30:43;20.15;;;12.77;;
43771;SDS011;59066;54.782;32.024;2022-12-07T15:33:12;22.13;;;13.20;;
43771;SDS011;59066;54.782;32.024;2022-12-07T15:35:41;16.90;;;8.25;;
43771;SDS011;59066;54.782;32.024;2022-12-07T15:38:10;16.20;;;9.77;;
43771;SDS011;59066;54.782;32.024;2022-12-07T15:40:38;19.88;;;12.45;;
43771;SDS011;59066;54.782;32.024;2022-12-07T15:43:07;19.77;;;10.80;;
43771;SDS011;59066;54.782;32.024;2022-12-07T15:45:56;16.35;;;8.45;;
43771;SDS011;59066;54.782;32.024;2022-12-07T15:48:23;17.88;;;10.25;;
43771;SDS011;59066;54.782;32.024;2022-12-07T15:51:00;21.13;;;13.50;;
43771;SDS011;59066;54.782;32.024;2022-12-07T15:53:32;16.15;;;9.77;;
43771;SDS011;59066;54.782;32.024;2022-12-07T15:56:01;16.27;;;10.25;;
43771;SDS011;59066;54.782;32.024;2022-12-07T15:58:28;20.23;;;10.93;;
43771;SDS011;59066;54.782;32.024;2022-12-07T16:00:57;17.73;;;10.75;;
43771;SDS011;59066;54.782;32.024;2022-12-07T16:03:26;18.08;;;9.35;;
43771;SDS011;59066;54.782;32.024;2022-12-07T16:05:54;21.48;;;15.52;;
43771;SDS011;59066;54.782;32.024;2022-12-07T16:08:21;17.00;;;10.10;;
43771;SDS011;59066;54.782;32.024;2022-12-07T16:10:49;18.90;;;9.57;;
43771;SDS011;59066;54.782;32.024;2022-12-07T16:13:16;22.00;;;15.23;;
43771;SDS011;59066;54.782;32.024;2022-12-07T16:15:46;17.05;;;10.40;;
43771;SDS011;59066;54.782;32.024;2022-12-07T16:18:13;20.80;;;11.95;;
43771;SDS011;59066;54.782;32.024;2022-12-07T16:20:41;18.50;;;8.90;;
43771;SDS011;59066;54.782;32.024;2022-12-07T16:23:08;22.15;;;14.25;;
43771;SDS011;59066;54.782;32.024;2022-12-07T16:25:36;15.48;;;8.85;;
43771;SDS011;59066;54.782;32.024;2022-12-07T16:28:03;17.30;;;7.95;;
43771;SDS011;59066;54.782;32.024;2022-12-07T16:30:31;32.33;;;16.98;;
43771;SDS011;59066;54.782;32.024;2022-12-07T16:32:58;17.73;;;9.13;;
43771;SDS011;59066;54.782;32.024;2022-12-07T16:35:28;17.27;;;10.88;;
43771;SDS011;59066;54.782;32.024;2022-12-07T16:37:55;16.92;;;8.38;;
43771;SDS011;59066;54.782;32.024;2022-12-07T16:40:23;19.35;;;11.63;;
43771;SDS011;59066;54.782;32.024;2022-12-07T16:42:50;20.98;;;14.27;;
43771;SDS011;59066;54.782;32.024;2022-12-07T16:45:18;20.65;;;10.43;;
43771;SDS011;59066;54.782;32.024;2022-12-07T16:47:46;19.25;;;12.75;;
43771;SDS011;59066;54.782;32.024;2022-12-07T16:50:14;24.77;;;14.25;;
43771;SDS011;59066;54.782;32.024;2022-12-07T16:52:41;15.38;;;9.98;;
43771;SDS011;59066;54.782;32.024;2022-12-07T16:55:09;23.63;;;15.38;;
43771;SDS011;59066;54.782;32.024;2022-12-07T16:57:36;21.73;;;12.45;;
43771;SDS011;59066;54.782;32.024;2022-12-07T17:00:04;21.92;;;11.98;;
43771;SDS011;59066;54.782;32.024;2022-12-07T17:02:32;20.48;;;10.90;;
43771;SDS011;59066;54.782;32.024;2022-12-07T17:05:00;18.60;;;10.75;;
43771;SDS011;59066;54.782;32.024;2022-12-07T17:07:28;22.45;;;12.68;;
43771;SDS011;59066;54.782;32.024;2022-12-07T17:09:55;28.23;;;15.68;;
43771;SDS011;59066;54.782;32.024;2022-12-07T17:12:22;15.35;;;8.63;;
43771;SDS011;59066;54.782;32.024;2022-12-07T17:14:50;18.95;;;11.60;;